Terminal Aerodrome Forecast
Issued by NWS

Current Version | Previous Version | Graphics & Text | Print | Product List | Glossary On
Versions: 1 2 3 4 5 6 7 8 9 10 11 12 13 14 15 16 17 18 19 20 21 22 23 24
000
FTUS41 KRLX 031003 AAB
TAFCKB
TAF AMD
KCKB 031003Z 0310/0406 00000KT 5SM BR OVC070
     FM031300 08003KT 6SM BR BKN070
     FM031700 12004KT 6SM SHRA VCTS OVC045CB
     FM031900 09004KT 3SM TSRA OVC025CB
     FM032200 06004KT 5SM SHRA BR VCTS OVC015CB
     FM040200 11004KT 5SM SHRA BR OVC030=

USA.gov is the U.S. government's official web portal to all federal, state and local government web resources and services.